Time,TemperatureF,DewpointF,PressureIn,WindDirection,WindDirectionDegrees,WindSpeedMPH,WindSpeedGustMPH,Humidity,HourlyPrecipIn,Conditions,Clouds,dailyrainin,SoftwareType,DateUTC
2013-05-19 00:01:00,54.0,52.0,30.21,SSE,156,0.0,2.0,92,41.13,,,-99.99,,2013-05-19 07:01:00,
2013-05-19 00:52:00,54.0,52.0,30.22,North,359,1.0,9.0,94,41.13,,,-99.99,,2013-05-19 07:52:00,
2013-05-19 01:01:00,54.0,52.0,30.22,South,190,0.0,8.0,94,41.13,,,-99.99,,2013-05-19 08:01:00,
2013-05-19 01:21:00,54.0,52.0,30.22,North,0,0.0,0.0,94,41.13,,,-99.99,,2013-05-19 08:21:00,
2013-05-19 01:31:00,54.0,53.0,30.22,North,0,0.0,0.0,95,41.13,,,-99.99,,2013-05-19 08:31:00,
2013-05-19 01:41:00,54.0,53.0,30.22,North,0,0.0,0.0,95,41.13,,,-99.99,,2013-05-19 08:41:00,
2013-05-19 01:52:00,54.0,53.0,30.22,North,0,0.0,0.0,95,41.13,,,-99.99,,2013-05-19 08:52:00,
2013-05-19 02:01:00,53.0,52.0,30.22,North,0,0.0,0.0,96,41.13,,,-99.99,,2013-05-19 09:01:00,
2013-05-19 02:21:00,53.0,52.0,30.22,North,0,0.0,0.0,96,41.13,,,-99.99,,2013-05-19 09:21:00,
2013-05-19 02:32:00,53.0,52.0,30.22,North,0,0.0,0.0,96,41.13,,,-99.99,,2013-05-19 09:32:00,
2013-05-19 02:42:00,53.0,52.0,30.22,North,0,0.0,0.0,96,41.13,,,-99.99,,2013-05-19 09:42:00,
2013-05-19 02:53:00,53.0,52.0,30.22,North,0,0.0,0.0,96,41.13,,,-99.99,,2013-05-19 09:53:00,
2013-05-19 03:02:00,53.0,52.0,30.23,North,0,0.0,0.0,96,41.14,,,-99.99,,2013-05-19 10:02:00,
2013-05-19 03:32:00,53.0,52.0,30.24,North,0,0.0,0.0,97,41.14,,,-99.99,,2013-05-19 10:32:00,
2013-05-19 03:42:00,53.0,52.0,30.24,North,0,0.0,0.0,97,41.14,,,-99.99,,2013-05-19 10:42:00,
2013-05-19 03:52:00,53.0,52.0,30.24,North,0,0.0,0.0,97,41.14,,,-99.99,,2013-05-19 10:52:00,
2013-05-19 04:02:00,53.0,52.0,30.24,North,0,0.0,0.0,97,41.14,,,-99.99,,2013-05-19 11:02:00,
2013-05-19 05:32:00,53.0,52.0,30.27,North,0,0.0,0.0,96,41.14,,,-99.99,,2013-05-19 12:32:00,
2013-05-19 05:42:00,53.0,52.0,30.27,North,0,0.0,0.0,96,41.14,,,-99.99,,2013-05-19 12:42:00,
2013-05-19 05:52:00,53.0,52.0,30.27,North,0,0.0,0.0,96,41.14,,,-99.99,,2013-05-19 12:52:00,
2013-05-19 06:01:00,53.0,52.0,30.27,North,0,0.0,0.0,96,41.14,,,-99.99,,2013-05-19 13:01:00,
2013-05-19 07:02:00,53.0,52.0,30.28,North,0,0.0,0.0,96,41.14,,,-99.99,,2013-05-19 14:02:00,
2013-05-19 07:51:00,53.0,52.0,30.29,SSW,212,2.0,10.0,96,41.14,,,-99.99,,2013-05-19 14:51:00,
2013-05-19 08:01:00,53.0,52.0,30.29,SSW,212,2.0,10.0,96,41.14,,,-99.99,,2013-05-19 15:01:00,
2013-05-19 08:11:00,53.0,52.0,30.29,SSW,212,2.0,10.0,96,41.14,,,-99.99,,2013-05-19 15:11:00,
2013-05-19 08:21:00,54.0,53.0,30.30,South,180,4.0,9.0,96,41.14,,,-99.99,,2013-05-19 15:21:00,
2013-05-19 08:33:00,54.0,53.0,30.30,South,180,4.0,9.0,96,41.14,,,-99.99,,2013-05-19 15:33:00,
2013-05-19 08:43:00,54.0,53.0,30.30,South,180,4.0,9.0,96,41.14,,,-99.99,,2013-05-19 15:43:00,
2013-05-19 08:53:00,54.0,53.0,30.30,South,180,4.0,9.0,96,41.14,,,-99.99,,2013-05-19 15:53:00,
2013-05-19 09:03:00,54.0,53.0,30.30,South,180,4.0,9.0,96,41.14,,,-99.99,,2013-05-19 16:03:00,
2013-05-19 12:01:00,59.0,54.0,30.31,SSW,195,5.0,13.0,82,41.14,,,-99.99,,2013-05-19 19:01:00,
2013-05-19 12:11:00,59.0,54.0,30.31,SSW,195,5.0,13.0,82,41.14,,,-99.99,,2013-05-19 19:11:00,
2013-05-19 12:21:00,59.0,54.0,30.31,SSW,195,5.0,13.0,82,41.14,,,-99.99,,2013-05-19 19:21:00,
2013-05-19 12:31:00,59.0,54.0,30.31,SSW,195,5.0,13.0,82,41.14,,,-99.99,,2013-05-19 19:31:00,
2013-05-19 12:41:00,59.0,54.0,30.31,SSW,195,5.0,13.0,82,41.14,,,-99.99,,2013-05-19 19:41:00,
2013-05-19 15:02:00,56.0,51.0,30.33,SE,134,2.0,12.0,84,41.14,,,-99.99,,2013-05-19 22:02:00,
2013-05-19 15:12:00,56.0,51.0,30.33,SE,134,2.0,12.0,84,41.14,,,-99.99,,2013-05-19 22:12:00,
2013-05-19 15:23:00,56.0,51.0,30.33,SE,134,2.0,12.0,84,41.14,,,-99.99,,2013-05-19 22:23:00,
2013-05-19 15:33:00,57.0,52.0,30.32,SE,143,5.0,12.0,84,41.14,,,-99.99,,2013-05-19 22:33:00,
2013-05-19 15:42:00,57.0,52.0,30.32,SE,143,5.0,12.0,84,41.14,,,-99.99,,2013-05-19 22:42:00,
2013-05-19 15:53:00,57.0,52.0,30.32,SE,143,5.0,12.0,84,41.14,,,-99.99,,2013-05-19 22:53:00,
2013-05-19 16:02:00,57.0,52.0,30.32,SE,143,5.0,12.0,84,41.14,,,-99.99,,2013-05-19 23:02:00,
2013-05-19 16:42:00,58.0,52.0,30.32,SE,142,5.0,12.0,81,41.14,,,-99.99,,2013-05-19 23:42:00,
2013-05-19 16:52:00,58.0,52.0,30.32,SE,142,5.0,12.0,81,41.14,,,-99.99,,2013-05-19 23:52:00,
2013-05-19 17:02:00,58.0,52.0,30.32,SE,142,5.0,12.0,81,41.14,,,-99.99,,2013-05-20 00:02:00,
2013-05-19 17:11:00,58.0,52.0,30.32,SE,142,5.0,12.0,81,41.14,,,-99.99,,2013-05-20 00:11:00,
2013-05-19 17:21:00,58.0,52.0,30.32,SE,142,5.0,12.0,81,41.14,,,-99.99,,2013-05-20 00:21:00,
2013-05-19 23:01:00,55.0,53.0,30.29,North,353,0.0,1.0,93,41.14,,,-99.99,,2013-05-20 06:01:00,
2013-05-19 23:52:00,54.0,52.0,30.29,North,0,0.0,0.0,93,41.14,,,-99.99,,2013-05-20 06:52:00,